createdAt,value
2018-12-31T00:00:33.455Z,5.10
2018-12-31T00:03:08.823Z,5.00
2018-12-31T00:05:46.443Z,5.00
2018-12-31T00:08:23.670Z,5.00
2018-12-31T00:10:58.837Z,4.90
2018-12-31T00:13:34.720Z,5.00
2018-12-31T00:16:08.634Z,5.00
2018-12-31T00:18:43.132Z,4.90
2018-12-31T00:21:17.192Z,4.90
2018-12-31T00:23:51.728Z,4.90
2018-12-31T00:26:26.589Z,4.90
2018-12-31T00:29:00.969Z,4.90
2018-12-31T00:31:36.048Z,4.80
2018-12-31T00:34:11.000Z,4.80
2018-12-31T00:36:45.360Z,4.80
2018-12-31T00:39:22.660Z,4.80
2018-12-31T00:41:57.423Z,4.80
2018-12-31T00:44:31.081Z,4.80
2018-12-31T00:47:05.710Z,4.90
2018-12-31T00:49:39.274Z,4.90
2018-12-31T00:52:14.068Z,4.90
2018-12-31T00:54:48.335Z,4.80
2018-12-31T00:57:24.271Z,4.80
2018-12-31T00:59:59.132Z,4.70
2018-12-31T01:02:34.374Z,4.70
2018-12-31T01:05:10.901Z,4.70
2018-12-31T01:07:48.571Z,4.70
2018-12-31T01:10:22.572Z,4.70
2018-12-31T01:12:58.002Z,4.60
2018-12-31T01:15:33.162Z,4.60
2018-12-31T01:18:07.599Z,4.60
2018-12-31T01:20:41.449Z,4.70
2018-12-31T01:23:15.333Z,4.70
2018-12-31T01:25:51.491Z,4.70
2018-12-31T01:28:26.800Z,4.60
2018-12-31T01:31:00.306Z,4.60
2018-12-31T01:33:35.294Z,4.60
2018-12-31T01:36:11.230Z,4.50
2018-12-31T01:38:45.194Z,4.50
2018-12-31T01:41:24.587Z,4.60
2018-12-31T01:43:58.512Z,4.60
2018-12-31T01:46:33.086Z,4.60
2018-12-31T01:49:06.918Z,4.50
2018-12-31T01:51:40.497Z,4.50
2018-12-31T01:54:14.099Z,4.50
2018-12-31T01:56:48.612Z,4.60
2018-12-31T01:59:22.590Z,4.80
2018-12-31T02:01:57.495Z,4.70
2018-12-31T02:04:31.247Z,4.60
2018-12-31T02:07:05.107Z,4.60
2018-12-31T02:09:39.637Z,4.70
2018-12-31T02:12:13.128Z,4.60
2018-12-31T02:14:47.129Z,4.40
2018-12-31T02:17:20.743Z,4.40
2018-12-31T02:19:55.419Z,4.50
2018-12-31T02:22:28.832Z,4.50
2018-12-31T02:25:03.615Z,4.40
2018-12-31T02:27:37.159Z,4.30
2018-12-31T02:30:12.071Z,4.30
2018-12-31T02:32:45.476Z,4.30
2018-12-31T02:35:19.668Z,4.30
2018-12-31T02:37:54.916Z,4.30
2018-12-31T02:40:28.809Z,4.30
2018-12-31T02:43:05.707Z,4.30
2018-12-31T02:45:40.619Z,4.30
2018-12-31T02:48:15.810Z,4.30
2018-12-31T02:50:51.680Z,4.30
2018-12-31T02:53:25.041Z,4.30
2018-12-31T02:55:59.130Z,4.30
2018-12-31T02:58:34.984Z,4.20
2018-12-31T03:01:09.000Z,4.20
2018-12-31T03:03:42.605Z,4.20
2018-12-31T03:06:16.451Z,4.20
2018-12-31T03:08:50.530Z,4.20
2018-12-31T03:11:26.363Z,4.10
2018-12-31T03:14:02.846Z,4.20
2018-12-31T03:16:37.917Z,4.20
2018-12-31T03:19:12.287Z,4.10
2018-12-31T03:21:46.641Z,4.10
2018-12-31T03:24:20.056Z,4.10
2018-12-31T03:26:53.853Z,4.00
2018-12-31T03:29:27.421Z,4.00
2018-12-31T03:32:01.980Z,4.00
2018-12-31T03:34:35.427Z,3.90
2018-12-31T03:37:09.494Z,4.00
2018-12-31T03:39:43.010Z,4.00
2018-12-31T03:42:24.843Z,3.90
2018-12-31T03:44:58.595Z,3.90
2018-12-31T03:47:32.765Z,3.90
2018-12-31T03:50:06.748Z,3.80
2018-12-31T03:52:39.868Z,3.90
2018-12-31T03:55:13.556Z,3.90
2018-12-31T03:57:47.517Z,3.80
2018-12-31T04:00:21.127Z,3.80
2018-12-31T04:02:54.823Z,3.80
2018-12-31T04:05:28.941Z,3.90
2018-12-31T04:08:03.456Z,3.80
2018-12-31T04:10:37.139Z,3.70
2018-12-31T04:13:13.022Z,3.70
2018-12-31T04:15:46.728Z,3.70
2018-12-31T04:18:20.696Z,3.80
2018-12-31T04:20:55.105Z,3.70
2018-12-31T04:23:29.050Z,3.70
2018-12-31T04:26:04.601Z,3.70
2018-12-31T04:28:38.592Z,3.70
2018-12-31T04:31:12.146Z,3.70
2018-12-31T04:33:46.325Z,3.70
2018-12-31T04:36:22.443Z,3.70
2018-12-31T04:38:56.177Z,3.70
2018-12-31T04:41:32.244Z,3.70
2018-12-31T04:44:07.116Z,3.70
2018-12-31T04:46:43.668Z,3.70
2018-12-31T04:49:17.183Z,3.70
2018-12-31T04:51:53.272Z,3.70
2018-12-31T04:54:29.704Z,3.70
2018-12-31T04:57:03.967Z,3.60
2018-12-31T04:59:38.515Z,3.60
2018-12-31T05:02:14.402Z,3.70
2018-12-31T05:04:48.202Z,3.70
2018-12-31T05:07:22.579Z,3.70
2018-12-31T05:09:58.624Z,3.70
2018-12-31T05:12:32.324Z,3.80
2018-12-31T05:15:07.064Z,3.70
2018-12-31T05:17:40.601Z,3.70
2018-12-31T05:20:15.431Z,3.70
2018-12-31T05:22:49.153Z,3.70
2018-12-31T05:25:23.335Z,3.80
2018-12-31T05:27:56.937Z,3.90
2018-12-31T05:30:30.977Z,3.80
2018-12-31T05:33:05.024Z,3.80
2018-12-31T05:35:39.877Z,3.80
2018-12-31T05:38:13.721Z,3.70
2018-12-31T05:40:47.776Z,4.00
2018-12-31T05:43:21.504Z,4.00
2018-12-31T05:45:57.296Z,3.90
2018-12-31T05:48:30.685Z,3.80
2018-12-31T05:51:05.094Z,3.90
2018-12-31T05:53:38.511Z,4.00
2018-12-31T05:56:12.404Z,4.10
2018-12-31T05:58:46.263Z,4.20
2018-12-31T06:01:20.381Z,4.20
2018-12-31T06:03:54.173Z,4.10
2018-12-31T06:06:28.181Z,4.10
2018-12-31T06:09:02.989Z,4.10
2018-12-31T06:11:36.688Z,3.90
2018-12-31T06:14:12.797Z,4.00
2018-12-31T06:16:48.050Z,4.20
2018-12-31T06:19:21.767Z,4.00
2018-12-31T06:21:55.817Z,3.90
2018-12-31T06:24:30.137Z,4.00
2018-12-31T06:27:04.261Z,4.10
2018-12-31T06:29:38.224Z,4.00
2018-12-31T06:32:12.742Z,4.00
2018-12-31T06:34:47.928Z,4.00
2018-12-31T06:37:21.893Z,4.00
2018-12-31T06:39:56.545Z,4.00
2018-12-31T06:42:33.352Z,4.00
2018-12-31T06:45:08.322Z,4.10
2018-12-31T06:47:44.910Z,4.10
2018-12-31T06:50:19.062Z,4.20
2018-12-31T06:52:53.087Z,4.20
2018-12-31T06:55:27.551Z,4.20
2018-12-31T06:58:02.290Z,4.20
2018-12-31T07:00:36.528Z,4.20
2018-12-31T07:03:12.107Z,4.20
2018-12-31T07:05:48.205Z,4.30
2018-12-31T07:08:23.406Z,4.50
2018-12-31T07:10:57.290Z,4.60
2018-12-31T07:13:32.923Z,4.60
2018-12-31T07:16:06.572Z,4.60
2018-12-31T07:18:42.827Z,4.60
2018-12-31T07:21:17.890Z,4.70
2018-12-31T07:23:52.354Z,4.80
2018-12-31T07:26:26.549Z,4.70
2018-12-31T07:29:03.091Z,4.80
2018-12-31T07:31:37.424Z,4.80
2018-12-31T07:34:12.754Z,4.90
2018-12-31T07:36:50.116Z,5.00
2018-12-31T07:39:28.917Z,5.00
2018-12-31T07:42:05.550Z,5.00
2018-12-31T07:44:42.037Z,5.00
2018-12-31T07:47:16.970Z,5.00
2018-12-31T07:49:51.854Z,5.10
2018-12-31T07:52:26.362Z,5.20
2018-12-31T07:55:00.586Z,5.30
2018-12-31T07:57:37.117Z,5.30
2018-12-31T08:00:13.078Z,5.40
2018-12-31T08:02:47.581Z,5.50
2018-12-31T08:05:22.853Z,5.60
2018-12-31T08:07:58.277Z,5.70
2018-12-31T08:10:34.132Z,5.70
2018-12-31T08:13:06.586Z,5.80
2018-12-31T08:15:40.788Z,5.90
2018-12-31T08:18:14.626Z,6.00
2018-12-31T08:20:53.032Z,6.10
2018-12-31T08:23:27.754Z,6.20
2018-12-31T08:26:03.556Z,6.30
2018-12-31T08:28:40.658Z,6.40
2018-12-31T08:31:15.000Z,6.50
2018-12-31T08:33:50.989Z,6.50
2018-12-31T08:36:30.379Z,6.60
2018-12-31T08:39:06.330Z,6.70
2018-12-31T08:41:43.306Z,6.80
2018-12-31T08:44:18.007Z,6.90
2018-12-31T08:46:52.547Z,7.00
2018-12-31T08:49:26.809Z,7.10
2018-12-31T08:52:00.645Z,7.20
2018-12-31T08:54:36.417Z,7.20
2018-12-31T08:57:21.124Z,7.30
2018-12-31T09:00:11.585Z,7.30
2018-12-31T09:02:47.743Z,7.20
2018-12-31T09:05:22.887Z,7.20
2018-12-31T09:07:58.530Z,7.20
2018-12-31T09:10:35.598Z,7.20
2018-12-31T09:13:09.912Z,7.20
2018-12-31T09:15:45.458Z,7.20
2018-12-31T09:18:20.798Z,7.10
2018-12-31T09:20:55.846Z,7.00
2018-12-31T09:23:30.483Z,7.00
2018-12-31T09:26:08.490Z,7.00
2018-12-31T09:28:45.470Z,6.90
2018-12-31T09:31:23.668Z,6.90
2018-12-31T09:34:04.048Z,7.00
2018-12-31T09:36:38.254Z,6.90
2018-12-31T09:39:12.354Z,6.80
2018-12-31T09:41:53.424Z,6.90
2018-12-31T09:44:27.506Z,7.00
2018-12-31T09:47:03.187Z,7.20
2018-12-31T09:49:39.469Z,7.30
2018-12-31T09:52:18.277Z,7.40
2018-12-31T09:54:52.586Z,7.40
2018-12-31T09:57:44.294Z,7.50
2018-12-31T10:00:20.533Z,7.70
2018-12-31T10:02:58.556Z,7.80
2018-12-31T10:05:33.872Z,7.90
2018-12-31T10:08:11.370Z,8.00
2018-12-31T10:10:47.615Z,8.10
2018-12-31T10:13:22.314Z,8.10
2018-12-31T10:15:56.914Z,8.30
2018-12-31T10:18:32.134Z,8.20
2018-12-31T10:21:11.816Z,8.20
2018-12-31T10:23:57.600Z,8.40
2018-12-31T10:26:34.079Z,8.50
2018-12-31T10:29:07.724Z,8.50
2018-12-31T10:31:41.870Z,8.60
2018-12-31T10:34:16.761Z,8.60
2018-12-31T10:36:52.616Z,8.70
2018-12-31T10:39:26.953Z,8.70
2018-12-31T10:42:02.872Z,8.80
2018-12-31T10:44:38.759Z,8.90
2018-12-31T10:47:13.136Z,9.00
2018-12-31T10:49:48.304Z,9.00
2018-12-31T10:52:24.332Z,9.00
2018-12-31T10:55:03.946Z,9.00
2018-12-31T10:57:40.366Z,8.90
2018-12-31T11:00:14.066Z,8.80
2018-12-31T11:02:47.759Z,8.70
2018-12-31T11:05:22.506Z,8.80
2018-12-31T11:07:59.868Z,8.70
2018-12-31T11:10:41.631Z,8.70
2018-12-31T11:13:17.986Z,8.80
2018-12-31T11:15:51.833Z,8.90
2018-12-31T11:18:26.464Z,8.90
2018-12-31T11:21:02.864Z,9.00
2018-12-31T11:23:38.205Z,8.90
2018-12-31T11:26:13.630Z,8.90
2018-12-31T11:28:47.912Z,8.90
2018-12-31T11:31:22.184Z,8.90
2018-12-31T11:34:00.596Z,8.90
2018-12-31T11:36:34.691Z,8.90
2018-12-31T11:39:12.354Z,9.00
2018-12-31T11:41:48.014Z,9.00
2018-12-31T11:44:23.035Z,9.10
2018-12-31T11:46:57.957Z,9.20
2018-12-31T11:49:41.353Z,9.10
2018-12-31T11:52:18.194Z,9.10
2018-12-31T11:54:50.836Z,9.30
2018-12-31T11:57:27.198Z,9.30
2018-12-31T12:00:02.059Z,9.20
2018-12-31T12:02:40.349Z,9.30
2018-12-31T12:05:15.718Z,9.40
2018-12-31T12:07:55.629Z,9.40
2018-12-31T12:10:33.736Z,9.30
2018-12-31T12:13:11.100Z,9.30
2018-12-31T12:15:50.743Z,9.40
2018-12-31T12:18:26.562Z,9.50
2018-12-31T12:21:00.189Z,9.60
2018-12-31T12:23:34.277Z,9.70
2018-12-31T12:26:10.319Z,9.80
2018-12-31T12:28:44.511Z,9.70
2018-12-31T12:31:18.394Z,9.80
2018-12-31T12:33:52.453Z,9.90
2018-12-31T12:36:26.579Z,9.80
2018-12-31T12:39:04.025Z,9.90
2018-12-31T12:41:39.772Z,9.90
2018-12-31T12:44:13.445Z,10.00
2018-12-31T12:46:49.212Z,10.10
2018-12-31T12:49:29.567Z,10.20
2018-12-31T12:52:06.398Z,10.30
2018-12-31T12:54:42.880Z,10.50
2018-12-31T12:57:18.012Z,10.60
2018-12-31T12:59:53.394Z,10.50
2018-12-31T13:02:28.871Z,10.50
2018-12-31T13:05:05.214Z,10.60
2018-12-31T13:07:42.972Z,10.60
2018-12-31T13:10:20.320Z,10.50
2018-12-31T13:12:54.844Z,10.50
2018-12-31T13:15:35.920Z,10.50
2018-12-31T13:18:16.182Z,10.40
2018-12-31T13:20:51.111Z,10.20
2018-12-31T13:23:41.662Z,10.20
2018-12-31T13:26:17.311Z,10.30
2018-12-31T13:28:52.658Z,10.30
2018-12-31T13:31:27.981Z,10.40
2018-12-31T13:34:02.180Z,10.40
2018-12-31T13:36:37.275Z,10.50
2018-12-31T13:39:15.225Z,10.50
2018-12-31T13:41:49.934Z,10.60
2018-12-31T13:44:24.201Z,10.60
2018-12-31T13:46:58.674Z,10.50
2018-12-31T13:49:34.227Z,10.40
2018-12-31T13:52:08.671Z,10.40
2018-12-31T13:54:42.646Z,10.50
2018-12-31T13:57:17.284Z,10.50
2018-12-31T13:59:52.707Z,10.40
2018-12-31T14:02:31.955Z,10.50
2018-12-31T14:05:07.101Z,10.50
2018-12-31T14:07:40.370Z,10.50
2018-12-31T14:10:15.636Z,10.50
2018-12-31T14:12:52.571Z,10.50
2018-12-31T14:15:40.824Z,10.60
2018-12-31T14:18:14.782Z,10.60
2018-12-31T14:20:50.082Z,10.50
2018-12-31T14:23:24.167Z,10.50
2018-12-31T14:25:59.022Z,10.40
2018-12-31T14:28:34.546Z,10.50
2018-12-31T14:31:09.508Z,10.40
2018-12-31T14:33:44.041Z,10.30
2018-12-31T14:36:19.276Z,10.30
2018-12-31T14:38:55.395Z,10.40
2018-12-31T14:41:30.805Z,10.40
2018-12-31T14:44:06.251Z,10.50
2018-12-31T14:46:41.998Z,10.40
2018-12-31T14:49:25.364Z,10.40
2018-12-31T14:52:03.358Z,10.30
2018-12-31T14:54:38.001Z,10.30
2018-12-31T14:57:16.853Z,10.30
2018-12-31T14:59:50.682Z,10.20
2018-12-31T15:02:40.439Z,10.20
2018-12-31T15:05:16.142Z,10.10
2018-12-31T15:07:50.819Z,10.00
2018-12-31T15:10:31.341Z,10.00
2018-12-31T15:13:05.588Z,10.00
2018-12-31T15:15:45.355Z,9.90
2018-12-31T15:18:19.111Z,9.90
2018-12-31T15:20:53.899Z,9.90
2018-12-31T15:23:28.590Z,9.80
2018-12-31T15:26:03.068Z,9.80
2018-12-31T15:28:41.540Z,9.80
2018-12-31T15:31:19.091Z,9.70
2018-12-31T15:33:53.567Z,9.70
2018-12-31T15:36:27.320Z,9.70
2018-12-31T15:39:12.503Z,9.60
2018-12-31T15:41:49.187Z,9.60
2018-12-31T15:44:27.284Z,9.50
2018-12-31T15:47:01.585Z,9.40
2018-12-31T15:49:37.735Z,9.40
2018-12-31T15:52:11.087Z,9.30
2018-12-31T15:54:49.018Z,9.40
2018-12-31T15:57:25.882Z,9.40
2018-12-31T16:00:02.009Z,9.30
2018-12-31T16:02:37.533Z,9.20
2018-12-31T16:05:14.301Z,9.20
2018-12-31T16:07:47.985Z,9.10
2018-12-31T16:10:22.284Z,9.10
2018-12-31T16:12:57.371Z,9.00
2018-12-31T16:15:32.334Z,9.00
2018-12-31T16:18:05.921Z,8.90
2018-12-31T16:20:39.423Z,8.80
2018-12-31T16:23:14.129Z,8.80
2018-12-31T16:25:48.449Z,8.70
2018-12-31T16:28:23.287Z,8.60
2018-12-31T16:30:59.274Z,8.60
2018-12-31T16:33:33.161Z,8.60
2018-12-31T16:36:07.341Z,8.50
2018-12-31T16:38:41.223Z,8.50
2018-12-31T16:41:15.550Z,8.50
2018-12-31T16:43:49.175Z,8.50
2018-12-31T16:46:24.448Z,8.40
2018-12-31T16:48:59.982Z,8.40
2018-12-31T16:51:34.157Z,8.40
2018-12-31T16:54:07.739Z,8.30
2018-12-31T16:56:41.923Z,8.20
2018-12-31T16:59:17.550Z,8.20
2018-12-31T17:01:52.210Z,8.10
2018-12-31T17:04:28.085Z,8.00
2018-12-31T17:07:03.130Z,8.00
2018-12-31T17:09:38.635Z,7.90
2018-12-31T17:12:14.949Z,7.90
2018-12-31T17:14:51.597Z,7.90
2018-12-31T17:17:29.993Z,7.90
2018-12-31T17:20:03.541Z,7.80
2018-12-31T17:22:39.647Z,7.80
2018-12-31T17:25:16.030Z,7.80
2018-12-31T17:27:51.063Z,7.80
2018-12-31T17:30:46.411Z,7.70
2018-12-31T17:33:21.075Z,7.80
2018-12-31T17:35:58.579Z,7.80
2018-12-31T17:38:33.631Z,7.60
2018-12-31T17:41:09.388Z,7.60
2018-12-31T17:43:43.566Z,7.60
2018-12-31T17:46:38.722Z,7.60
2018-12-31T17:49:15.005Z,7.60
2018-12-31T17:51:55.773Z,7.40
2018-12-31T17:54:26.403Z,7.40
2018-12-31T17:57:00.183Z,7.50
2018-12-31T17:59:34.186Z,7.50
2018-12-31T18:02:09.894Z,7.50
2018-12-31T18:04:46.551Z,7.50
2018-12-31T18:07:20.411Z,7.50
2018-12-31T18:09:54.451Z,7.50
2018-12-31T18:12:28.825Z,7.50
2018-12-31T18:15:05.191Z,7.50
2018-12-31T18:17:40.126Z,7.50
2018-12-31T18:20:16.287Z,7.40
2018-12-31T18:22:53.265Z,7.40
2018-12-31T18:25:27.640Z,7.40
2018-12-31T18:28:06.952Z,7.30
2018-12-31T18:30:41.034Z,7.30
2018-12-31T18:33:17.219Z,7.30
2018-12-31T18:35:54.171Z,7.30
2018-12-31T18:38:29.957Z,7.30
2018-12-31T18:41:04.349Z,7.30
2018-12-31T18:43:42.329Z,7.20
2018-12-31T18:46:18.208Z,7.20
2018-12-31T18:48:52.100Z,7.20
2018-12-31T18:51:27.659Z,7.30
2018-12-31T18:54:01.776Z,7.10
2018-12-31T18:56:35.221Z,7.10
2018-12-31T18:59:09.953Z,7.10
2018-12-31T19:01:45.312Z,7.00
2018-12-31T19:04:21.535Z,7.10
2018-12-31T19:06:55.723Z,7.20
2018-12-31T19:09:30.554Z,7.20
2018-12-31T19:12:06.595Z,7.10
2018-12-31T19:14:40.905Z,7.00
2018-12-31T19:17:18.505Z,7.00
2018-12-31T19:19:52.341Z,7.10
2018-12-31T19:22:27.970Z,7.00
2018-12-31T19:25:03.940Z,6.90
2018-12-31T19:27:38.662Z,6.80
2018-12-31T19:30:13.401Z,6.80
2018-12-31T19:32:47.790Z,6.70
2018-12-31T19:35:25.858Z,6.70
2018-12-31T19:38:03.269Z,6.60
2018-12-31T19:40:37.223Z,6.60
2018-12-31T19:43:13.911Z,6.60
2018-12-31T19:45:48.157Z,6.50
2018-12-31T19:48:22.231Z,6.50
2018-12-31T19:50:56.683Z,6.60
2018-12-31T19:53:30.876Z,6.60
2018-12-31T19:56:07.251Z,6.50
2018-12-31T19:58:44.142Z,6.50
2018-12-31T20:01:19.229Z,6.30
2018-12-31T20:03:55.118Z,6.40
2018-12-31T20:06:30.155Z,6.60
2018-12-31T20:09:11.856Z,6.40
2018-12-31T20:11:45.413Z,6.10
2018-12-31T20:14:20.725Z,5.90
2018-12-31T20:16:55.737Z,6.20
2018-12-31T20:19:30.481Z,6.30
2018-12-31T20:22:04.016Z,6.20
2018-12-31T20:24:39.556Z,6.20
2018-12-31T20:27:13.219Z,6.10
2018-12-31T20:29:47.970Z,5.90
2018-12-31T20:32:22.045Z,5.90
